sensor_id;sensor_type;location;lat;lon;timestamp;P1;durP1;ratioP1;P2;durP2;ratioP2
19036;SDS011;9651;49.138;8.900;2023-03-01T00:00:08;18.30;;;8.47;;
19036;SDS011;9651;49.138;8.900;2023-03-01T00:04:14;16.80;;;8.90;;
19036;SDS011;9651;49.138;8.900;2023-03-01T00:08:17;17.60;;;8.27;;
19036;SDS011;9651;49.138;8.900;2023-03-01T00:12:19;17.40;;;9.23;;
19036;SDS011;9651;49.138;8.900;2023-03-01T00:16:22;21.73;;;10.93;;
19036;SDS011;9651;49.138;8.900;2023-03-01T00:20:24;19.87;;;10.57;;
19036;SDS011;9651;49.138;8.900;2023-03-01T00:24:28;20.57;;;10.70;;
19036;SDS011;9651;49.138;8.900;2023-03-01T00:28:31;21.47;;;10.93;;
19036;SDS011;9651;49.138;8.900;2023-03-01T00:32:33;18.73;;;10.30;;
19036;SDS011;9651;49.138;8.900;2023-03-01T00:36:36;16.37;;;8.50;;
19036;SDS011;9651;49.138;8.900;2023-03-01T00:40:40;18.67;;;9.07;;
19036;SDS011;9651;49.138;8.900;2023-03-01T00:44:42;15.80;;;8.83;;
19036;SDS011;9651;49.138;8.900;2023-03-01T00:48:44;18.20;;;8.50;;
19036;SDS011;9651;49.138;8.900;2023-03-01T00:52:46;16.03;;;8.40;;
19036;SDS011;9651;49.138;8.900;2023-03-01T00:56:49;14.30;;;8.87;;
19036;SDS011;9651;49.138;8.900;2023-03-01T01:00:51;13.33;;;7.87;;
19036;SDS011;9651;49.138;8.900;2023-03-01T01:04:53;15.20;;;8.20;;
19036;SDS011;9651;49.138;8.900;2023-03-01T01:08:55;15.00;;;8.27;;
19036;SDS011;9651;49.138;8.900;2023-03-01T01:12:59;20.40;;;9.50;;
19036;SDS011;9651;49.138;8.900;2023-03-01T01:17:01;27.13;;;9.30;;
19036;SDS011;9651;49.138;8.900;2023-03-01T01:21:03;18.37;;;9.60;;
19036;SDS011;9651;49.138;8.900;2023-03-01T01:25:07;18.17;;;9.87;;
19036;SDS011;9651;49.138;8.900;2023-03-01T01:29:11;19.13;;;9.60;;
19036;SDS011;9651;49.138;8.900;2023-03-01T01:33:13;19.77;;;10.33;;
19036;SDS011;9651;49.138;8.900;2023-03-01T01:37:15;17.53;;;9.40;;
19036;SDS011;9651;49.138;8.900;2023-03-01T01:41:17;17.50;;;9.90;;
19036;SDS011;9651;49.138;8.900;2023-03-01T01:45:33;20.73;;;10.10;;
19036;SDS011;9651;49.138;8.900;2023-03-01T01:49:37;22.60;;;10.77;;
19036;SDS011;9651;49.138;8.900;2023-03-01T01:53:42;18.63;;;10.30;;
19036;SDS011;9651;49.138;8.900;2023-03-01T01:57:49;18.60;;;9.97;;
19036;SDS011;9651;49.138;8.900;2023-03-01T02:01:55;18.33;;;10.63;;
19036;SDS011;9651;49.138;8.900;2023-03-01T02:06:00;21.37;;;10.13;;
19036;SDS011;9651;49.138;8.900;2023-03-01T02:10:06;19.73;;;10.43;;
19036;SDS011;9651;49.138;8.900;2023-03-01T02:14:08;19.17;;;10.47;;
19036;SDS011;9651;49.138;8.900;2023-03-01T02:18:12;19.80;;;10.90;;
19036;SDS011;9651;49.138;8.900;2023-03-01T02:22:18;19.43;;;10.23;;
19036;SDS011;9651;49.138;8.900;2023-03-01T02:26:27;21.47;;;10.83;;
19036;SDS011;9651;49.138;8.900;2023-03-01T02:30:35;20.33;;;10.57;;
19036;SDS011;9651;49.138;8.900;2023-03-01T02:34:57;24.03;;;11.83;;
19036;SDS011;9651;49.138;8.900;2023-03-01T02:38:59;22.00;;;10.30;;
19036;SDS011;9651;49.138;8.900;2023-03-01T02:43:06;19.47;;;11.00;;
19036;SDS011;9651;49.138;8.900;2023-03-01T02:47:12;19.70;;;9.70;;
19036;SDS011;9651;49.138;8.900;2023-03-01T02:51:31;19.00;;;10.57;;
19036;SDS011;9651;49.138;8.900;2023-03-01T02:55:42;20.93;;;10.83;;
19036;SDS011;9651;49.138;8.900;2023-03-01T02:59:44;17.63;;;9.93;;
19036;SDS011;9651;49.138;8.900;2023-03-01T03:03:48;24.50;;;11.30;;
19036;SDS011;9651;49.138;8.900;2023-03-01T03:07:51;24.50;;;11.30;;
19036;SDS011;9651;49.138;8.900;2023-03-01T03:11:53;21.20;;;11.27;;
19036;SDS011;9651;49.138;8.900;2023-03-01T03:15:56;24.87;;;11.93;;
19036;SDS011;9651;49.138;8.900;2023-03-01T03:20:00;21.80;;;10.70;;
19036;SDS011;9651;49.138;8.900;2023-03-01T03:24:03;28.00;;;11.97;;
19036;SDS011;9651;49.138;8.900;2023-03-01T03:28:06;25.13;;;11.73;;
19036;SDS011;9651;49.138;8.900;2023-03-01T03:32:10;23.27;;;10.37;;
19036;SDS011;9651;49.138;8.900;2023-03-01T03:36:16;19.03;;;9.97;;
19036;SDS011;9651;49.138;8.900;2023-03-01T03:40:18;19.23;;;10.23;;
19036;SDS011;9651;49.138;8.900;2023-03-01T03:44:20;25.10;;;11.03;;
19036;SDS011;9651;49.138;8.900;2023-03-01T03:48:22;23.27;;;10.90;;
19036;SDS011;9651;49.138;8.900;2023-03-01T03:52:26;25.33;;;11.47;;
19036;SDS011;9651;49.138;8.900;2023-03-01T03:56:28;23.73;;;10.90;;
19036;SDS011;9651;49.138;8.900;2023-03-01T04:00:30;22.60;;;11.50;;
19036;SDS011;9651;49.138;8.900;2023-03-01T04:04:32;25.73;;;10.90;;
19036;SDS011;9651;49.138;8.900;2023-03-01T04:08:35;25.37;;;10.70;;
19036;SDS011;9651;49.138;8.900;2023-03-01T04:12:37;22.70;;;11.93;;
19036;SDS011;9651;49.138;8.900;2023-03-01T04:16:39;20.50;;;10.47;;
19036;SDS011;9651;49.138;8.900;2023-03-01T04:20:41;22.30;;;11.37;;
19036;SDS011;9651;49.138;8.900;2023-03-01T04:24:46;20.30;;;11.33;;
19036;SDS011;9651;49.138;8.900;2023-03-01T04:28:49;21.90;;;11.30;;
19036;SDS011;9651;49.138;8.900;2023-03-01T04:32:50;22.40;;;12.07;;
19036;SDS011;9651;49.138;8.900;2023-03-01T04:36:52;23.10;;;12.30;;
19036;SDS011;9651;49.138;8.900;2023-03-01T04:40:56;17.67;;;10.07;;
19036;SDS011;9651;49.138;8.900;2023-03-01T04:44:57;22.30;;;11.47;;
19036;SDS011;9651;49.138;8.900;2023-03-01T04:48:59;23.10;;;11.30;;
19036;SDS011;9651;49.138;8.900;2023-03-01T04:53:01;21.50;;;11.03;;
19036;SDS011;9651;49.138;8.900;2023-03-01T04:57:05;22.30;;;10.23;;
19036;SDS011;9651;49.138;8.900;2023-03-01T05:01:10;21.23;;;9.97;;
19036;SDS011;9651;49.138;8.900;2023-03-01T05:05:15;24.67;;;12.07;;
19036;SDS011;9651;49.138;8.900;2023-03-01T05:09:17;22.93;;;11.33;;
19036;SDS011;9651;49.138;8.900;2023-03-01T05:13:20;24.60;;;12.13;;
19036;SDS011;9651;49.138;8.900;2023-03-01T05:17:22;25.03;;;11.80;;
19036;SDS011;9651;49.138;8.900;2023-03-01T05:21:25;25.87;;;11.47;;
19036;SDS011;9651;49.138;8.900;2023-03-01T05:25:27;23.30;;;11.67;;
19036;SDS011;9651;49.138;8.900;2023-03-01T05:29:34;26.50;;;11.23;;
19036;SDS011;9651;49.138;8.900;2023-03-01T05:33:36;21.07;;;11.17;;
19036;SDS011;9651;49.138;8.900;2023-03-01T05:37:39;25.27;;;13.30;;
19036;SDS011;9651;49.138;8.900;2023-03-01T05:41:42;30.03;;;14.53;;
19036;SDS011;9651;49.138;8.900;2023-03-01T05:45:45;24.27;;;12.17;;
19036;SDS011;9651;49.138;8.900;2023-03-01T05:49:47;24.07;;;11.57;;
19036;SDS011;9651;49.138;8.900;2023-03-01T05:53:50;26.67;;;12.03;;
19036;SDS011;9651;49.138;8.900;2023-03-01T05:57:52;26.77;;;11.77;;
19036;SDS011;9651;49.138;8.900;2023-03-01T06:01:55;29.43;;;12.23;;
19036;SDS011;9651;49.138;8.900;2023-03-01T06:05:57;27.87;;;11.20;;
19036;SDS011;9651;49.138;8.900;2023-03-01T06:09:59;28.90;;;12.37;;
19036;SDS011;9651;49.138;8.900;2023-03-01T06:14:01;26.87;;;11.83;;
19036;SDS011;9651;49.138;8.900;2023-03-01T06:18:05;31.33;;;12.73;;
19036;SDS011;9651;49.138;8.900;2023-03-01T06:22:06;40.10;;;15.23;;
19036;SDS011;9651;49.138;8.900;2023-03-01T06:26:09;33.37;;;14.97;;
19036;SDS011;9651;49.138;8.900;2023-03-01T06:30:12;28.23;;;13.60;;
19036;SDS011;9651;49.138;8.900;2023-03-01T06:34:16;25.53;;;11.97;;
19036;SDS011;9651;49.138;8.900;2023-03-01T06:38:19;23.57;;;12.37;;
19036;SDS011;9651;49.138;8.900;2023-03-01T06:42:21;34.40;;;13.70;;
19036;SDS011;9651;49.138;8.900;2023-03-01T06:46:22;29.00;;;12.83;;
19036;SDS011;9651;49.138;8.900;2023-03-01T06:50:26;24.70;;;11.80;;
19036;SDS011;9651;49.138;8.900;2023-03-01T06:54:27;28.47;;;12.33;;
19036;SDS011;9651;49.138;8.900;2023-03-01T06:58:29;29.23;;;12.80;;
19036;SDS011;9651;49.138;8.900;2023-03-01T07:02:31;23.90;;;12.70;;
19036;SDS011;9651;49.138;8.900;2023-03-01T07:06:35;33.87;;;13.13;;
19036;SDS011;9651;49.138;8.900;2023-03-01T07:10:36;33.00;;;12.73;;
19036;SDS011;9651;49.138;8.900;2023-03-01T07:14:38;27.33;;;11.63;;
19036;SDS011;9651;49.138;8.900;2023-03-01T07:18:40;34.83;;;13.17;;
19036;SDS011;9651;49.138;8.900;2023-03-01T07:22:43;27.30;;;12.17;;
19036;SDS011;9651;49.138;8.900;2023-03-01T07:26:47;32.13;;;12.30;;
19036;SDS011;9651;49.138;8.900;2023-03-01T07:30:50;31.97;;;11.73;;
19036;SDS011;9651;49.138;8.900;2023-03-01T07:34:51;28.87;;;13.13;;
19036;SDS011;9651;49.138;8.900;2023-03-01T07:38:55;26.53;;;13.07;;
19036;SDS011;9651;49.138;8.900;2023-03-01T07:42:58;22.90;;;11.40;;
19036;SDS011;9651;49.138;8.900;2023-03-01T07:47:02;23.57;;;12.43;;
19036;SDS011;9651;49.138;8.900;2023-03-01T07:51:05;25.23;;;13.27;;
19036;SDS011;9651;49.138;8.900;2023-03-01T07:55:09;24.97;;;11.47;;
19036;SDS011;9651;49.138;8.900;2023-03-01T07:59:11;21.67;;;11.27;;
19036;SDS011;9651;49.138;8.900;2023-03-01T08:03:13;20.47;;;10.90;;
19036;SDS011;9651;49.138;8.900;2023-03-01T08:07:15;22.87;;;11.57;;
19036;SDS011;9651;49.138;8.900;2023-03-01T08:11:18;19.03;;;10.40;;
19036;SDS011;9651;49.138;8.900;2023-03-01T08:15:20;22.43;;;11.60;;
19036;SDS011;9651;49.138;8.900;2023-03-01T08:19:21;17.10;;;10.40;;
19036;SDS011;9651;49.138;8.900;2023-03-01T08:23:23;19.03;;;11.43;;
19036;SDS011;9651;49.138;8.900;2023-03-01T08:27:27;24.53;;;12.10;;
19036;SDS011;9651;49.138;8.900;2023-03-01T08:31:29;25.70;;;12.70;;
19036;SDS011;9651;49.138;8.900;2023-03-01T08:35:32;24.87;;;11.97;;
19036;SDS011;9651;49.138;8.900;2023-03-01T08:39:34;22.03;;;11.60;;
19036;SDS011;9651;49.138;8.900;2023-03-01T08:43:37;24.13;;;12.13;;
19036;SDS011;9651;49.138;8.900;2023-03-01T08:47:39;22.47;;;12.23;;
19036;SDS011;9651;49.138;8.900;2023-03-01T08:51:41;23.17;;;12.73;;
19036;SDS011;9651;49.138;8.900;2023-03-01T08:55:43;22.70;;;12.83;;
19036;SDS011;9651;49.138;8.900;2023-03-01T08:59:46;19.90;;;11.90;;
19036;SDS011;9651;49.138;8.900;2023-03-01T09:03:48;24.73;;;12.53;;
19036;SDS011;9651;49.138;8.900;2023-03-01T09:07:50;23.77;;;12.47;;
19036;SDS011;9651;49.138;8.900;2023-03-01T09:11:52;25.73;;;14.30;;
19036;SDS011;9651;49.138;8.900;2023-03-01T09:15:55;25.50;;;12.97;;
19036;SDS011;9651;49.138;8.900;2023-03-01T09:19:57;22.27;;;12.03;;
19036;SDS011;9651;49.138;8.900;2023-03-01T09:23:59;22.23;;;12.83;;
19036;SDS011;9651;49.138;8.900;2023-03-01T09:28:01;18.60;;;12.00;;
19036;SDS011;9651;49.138;8.900;2023-03-01T09:32:05;23.00;;;12.90;;
19036;SDS011;9651;49.138;8.900;2023-03-01T09:36:10;22.23;;;12.23;;
19036;SDS011;9651;49.138;8.900;2023-03-01T09:40:14;23.57;;;13.13;;
19036;SDS011;9651;49.138;8.900;2023-03-01T09:44:21;20.60;;;12.47;;
19036;SDS011;9651;49.138;8.900;2023-03-01T09:48:31;21.37;;;12.63;;
19036;SDS011;9651;49.138;8.900;2023-03-01T09:52:39;30.93;;;15.07;;
19036;SDS011;9651;49.138;8.900;2023-03-01T09:56:44;28.77;;;15.17;;
19036;SDS011;9651;49.138;8.900;2023-03-01T10:00:53;25.47;;;12.53;;
19036;SDS011;9651;49.138;8.900;2023-03-01T10:05:05;19.93;;;12.90;;
19036;SDS011;9651;49.138;8.900;2023-03-01T10:09:16;23.83;;;13.73;;
19036;SDS011;9651;49.138;8.900;2023-03-01T10:13:21;26.70;;;14.27;;
19036;SDS011;9651;49.138;8.900;2023-03-01T10:17:27;20.40;;;13.73;;
19036;SDS011;9651;49.138;8.900;2023-03-01T10:21:38;34.13;;;18.10;;
19036;SDS011;9651;49.138;8.900;2023-03-01T10:25:52;24.33;;;15.37;;
19036;SDS011;9651;49.138;8.900;2023-03-01T10:30:09;23.80;;;13.63;;
19036;SDS011;9651;49.138;8.900;2023-03-01T10:34:18;19.57;;;13.60;;
19036;SDS011;9651;49.138;8.900;2023-03-01T10:38:24;20.80;;;14.30;;
19036;SDS011;9651;49.138;8.900;2023-03-01T10:42:28;20.50;;;14.13;;
19036;SDS011;9651;49.138;8.900;2023-03-01T10:46:32;20.03;;;13.37;;
19036;SDS011;9651;49.138;8.900;2023-03-01T10:50:35;21.50;;;14.70;;
19036;SDS011;9651;49.138;8.900;2023-03-01T10:54:41;22.90;;;15.43;;
19036;SDS011;9651;49.138;8.900;2023-03-01T10:58:57;21.43;;;13.67;;
19036;SDS011;9651;49.138;8.900;2023-03-01T11:03:10;25.27;;;15.27;;
19036;SDS011;9651;49.138;8.900;2023-03-01T11:07:14;23.23;;;15.00;;
19036;SDS011;9651;49.138;8.900;2023-03-01T11:11:31;21.27;;;15.17;;
19036;SDS011;9651;49.138;8.900;2023-03-01T11:15:34;20.15;;;13.70;;
19036;SDS011;9651;49.138;8.900;2023-03-01T11:19:37;21.83;;;15.30;;
19036;SDS011;9651;49.138;8.900;2023-03-01T11:23:38;21.40;;;15.00;;
19036;SDS011;9651;49.138;8.900;2023-03-01T11:27:44;18.02;;;13.80;;
19036;SDS011;9651;49.138;8.900;2023-03-01T11:31:48;23.92;;;14.75;;
19036;SDS011;9651;49.138;8.900;2023-03-01T11:35:53;27.13;;;14.82;;
19036;SDS011;9651;49.138;8.900;2023-03-01T11:40:03;18.77;;;14.43;;
19036;SDS011;9651;49.138;8.900;2023-03-01T11:44:14;18.40;;;14.60;;
19036;SDS011;9651;49.138;8.900;2023-03-01T11:48:27;23.95;;;15.05;;
19036;SDS011;9651;49.138;8.900;2023-03-01T11:52:46;22.58;;;14.63;;
19036;SDS011;9651;49.138;8.900;2023-03-01T11:56:58;20.52;;;14.10;;
19036;SDS011;9651;49.138;8.900;2023-03-01T12:01:11;22.95;;;15.02;;
19036;SDS011;9651;49.138;8.900;2023-03-01T12:05:38;20.48;;;15.65;;
19036;SDS011;9651;49.138;8.900;2023-03-01T12:10:17;19.55;;;14.18;;
19036;SDS011;9651;49.138;8.900;2023-03-01T12:14:27;20.45;;;13.85;;
19036;SDS011;9651;49.138;8.900;2023-03-01T12:23:34;19.20;;;13.63;;
19036;SDS011;9651;49.138;8.900;2023-03-01T12:27:52;19.85;;;14.57;;
19036;SDS011;9651;49.138;8.900;2023-03-01T12:36:45;19.17;;;14.45;;
19036;SDS011;9651;49.138;8.900;2023-03-01T12:41:02;23.95;;;15.68;;
19036;SDS011;9651;49.138;8.900;2023-03-01T12:45:40;21.00;;;13.25;;
19036;SDS011;9651;49.138;8.900;2023-03-01T12:49:55;19.17;;;14.43;;
19036;SDS011;9651;49.138;8.900;2023-03-01T12:54:05;26.87;;;15.37;;
19036;SDS011;9651;49.138;8.900;2023-03-01T12:58:15;20.37;;;13.73;;
19036;SDS011;9651;49.138;8.900;2023-03-01T13:02:26;22.30;;;14.17;;
19036;SDS011;9651;49.138;8.900;2023-03-01T13:06:38;23.03;;;13.20;;
19036;SDS011;9651;49.138;8.900;2023-03-01T13:10:48;23.43;;;13.30;;
19036;SDS011;9651;49.138;8.900;2023-03-01T13:14:54;20.90;;;12.63;;
19036;SDS011;9651;49.138;8.900;2023-03-01T13:19:05;25.67;;;12.83;;
19036;SDS011;9651;49.138;8.900;2023-03-01T13:23:11;25.77;;;13.37;;
19036;SDS011;9651;49.138;8.900;2023-03-01T13:27:26;20.83;;;12.93;;
19036;SDS011;9651;49.138;8.900;2023-03-01T13:36:05;27.67;;;14.23;;
19036;SDS011;9651;49.138;8.900;2023-03-01T13:44:56;23.27;;;12.87;;
19036;SDS011;9651;49.138;8.900;2023-03-01T13:48:59;20.23;;;12.10;;
19036;SDS011;9651;49.138;8.900;2023-03-01T13:53:03;23.30;;;12.17;;
19036;SDS011;9651;49.138;8.900;2023-03-01T13:57:12;17.37;;;11.73;;
19036;SDS011;9651;49.138;8.900;2023-03-01T14:01:26;23.43;;;12.33;;
19036;SDS011;9651;49.138;8.900;2023-03-01T14:05:29;21.07;;;12.47;;
19036;SDS011;9651;49.138;8.900;2023-03-01T14:09:31;25.93;;;12.13;;
19036;SDS011;9651;49.138;8.900;2023-03-01T14:13:38;21.23;;;12.50;;
19036;SDS011;9651;49.138;8.900;2023-03-01T14:17:56;18.77;;;11.27;;
19036;SDS011;9651;49.138;8.900;2023-03-01T14:22:16;26.83;;;13.67;;
19036;SDS011;9651;49.138;8.900;2023-03-01T14:26:22;23.90;;;11.00;;
19036;SDS011;9651;49.138;8.900;2023-03-01T14:30:25;24.13;;;11.40;;
19036;SDS011;9651;49.138;8.900;2023-03-01T14:34:33;20.90;;;10.77;;
19036;SDS011;9651;49.138;8.900;2023-03-01T14:38:36;20.27;;;12.00;;
19036;SDS011;9651;49.138;8.900;2023-03-01T14:42:39;17.23;;;10.80;;
19036;SDS011;9651;49.138;8.900;2023-03-01T14:46:41;22.50;;;12.07;;
19036;SDS011;9651;49.138;8.900;2023-03-01T14:50:46;19.80;;;11.70;;
19036;SDS011;9651;49.138;8.900;2023-03-01T14:54:50;23.87;;;12.77;;
19036;SDS011;9651;49.138;8.900;2023-03-01T14:58:54;32.10;;;12.37;;
19036;SDS011;9651;49.138;8.900;2023-03-01T15:03:00;27.77;;;12.97;;
19036;SDS011;9651;49.138;8.900;2023-03-01T15:07:11;25.23;;;11.67;;
19036;SDS011;9651;49.138;8.900;2023-03-01T15:11:19;20.13;;;11.10;;
19036;SDS011;9651;49.138;8.900;2023-03-01T15:15:34;20.43;;;12.03;;
19036;SDS011;9651;49.138;8.900;2023-03-01T15:19:38;24.60;;;12.50;;
19036;SDS011;9651;49.138;8.900;2023-03-01T15:23:47;18.83;;;11.57;;
19036;SDS011;9651;49.138;8.900;2023-03-01T15:27:50;18.30;;;10.43;;
19036;SDS011;9651;49.138;8.900;2023-03-01T15:31:54;21.97;;;11.87;;
19036;SDS011;9651;49.138;8.900;2023-03-01T15:35:58;23.53;;;11.80;;
19036;SDS011;9651;49.138;8.900;2023-03-01T15:40:17;40.00;;;15.93;;
19036;SDS011;9651;49.138;8.900;2023-03-01T15:44:25;25.20;;;12.77;;
19036;SDS011;9651;49.138;8.900;2023-03-01T15:48:28;31.63;;;12.00;;
19036;SDS011;9651;49.138;8.900;2023-03-01T15:52:32;20.37;;;12.07;;
19036;SDS011;9651;49.138;8.900;2023-03-01T15:56:40;24.83;;;12.90;;
19036;SDS011;9651;49.138;8.900;2023-03-01T16:00:44;27.67;;;11.87;;
19036;SDS011;9651;49.138;8.900;2023-03-01T16:04:48;26.03;;;13.23;;
19036;SDS011;9651;49.138;8.900;2023-03-01T16:08:50;18.03;;;11.53;;
19036;SDS011;9651;49.138;8.900;2023-03-01T16:12:53;24.53;;;13.33;;
19036;SDS011;9651;49.138;8.900;2023-03-01T16:16:55;34.10;;;14.33;;
19036;SDS011;9651;49.138;8.900;2023-03-01T16:20:57;18.87;;;11.67;;
19036;SDS011;9651;49.138;8.900;2023-03-01T16:24:59;22.87;;;13.27;;
19036;SDS011;9651;49.138;8.900;2023-03-01T16:29:04;20.63;;;12.07;;
19036;SDS011;9651;49.138;8.900;2023-03-01T16:33:06;18.97;;;11.87;;
19036;SDS011;9651;49.138;8.900;2023-03-01T16:37:09;21.77;;;12.33;;
19036;SDS011;9651;49.138;8.900;2023-03-01T16:41:11;22.10;;;13.03;;
19036;SDS011;9651;49.138;8.900;2023-03-01T16:45:16;22.33;;;13.07;;
19036;SDS011;9651;49.138;8.900;2023-03-01T16:49:18;20.63;;;11.23;;
19036;SDS011;9651;49.138;8.900;2023-03-01T16:53:20;22.30;;;11.07;;
19036;SDS011;9651;49.138;8.900;2023-03-01T16:57:22;26.03;;;12.43;;
19036;SDS011;9651;49.138;8.900;2023-03-01T17:01:25;22.67;;;11.97;;
19036;SDS011;9651;49.138;8.900;2023-03-01T17:05:34;24.10;;;11.57;;
19036;SDS011;9651;49.138;8.900;2023-03-01T17:09:37;21.70;;;12.00;;
19036;SDS011;9651;49.138;8.900;2023-03-01T17:13:39;22.60;;;11.57;;
19036;SDS011;9651;49.138;8.900;2023-03-01T17:17:43;21.10;;;11.50;;
19036;SDS011;9651;49.138;8.900;2023-03-01T17:21:45;26.07;;;12.00;;
19036;SDS011;9651;49.138;8.900;2023-03-01T17:25:47;20.60;;;11.67;;
19036;SDS011;9651;49.138;8.900;2023-03-01T17:29:48;21.93;;;11.47;;
19036;SDS011;9651;49.138;8.900;2023-03-01T17:33:52;23.27;;;12.40;;
19036;SDS011;9651;49.138;8.900;2023-03-01T17:37:53;18.07;;;10.50;;
19036;SDS011;9651;49.138;8.900;2023-03-01T17:41:56;23.80;;;14.07;;
19036;SDS011;9651;49.138;8.900;2023-03-01T17:45:58;21.00;;;12.53;;
19036;SDS011;9651;49.138;8.900;2023-03-01T17:50:01;21.93;;;13.00;;
19036;SDS011;9651;49.138;8.900;2023-03-01T17:54:05;29.53;;;14.17;;
19036;SDS011;9651;49.138;8.900;2023-03-01T17:58:07;18.87;;;11.60;;
19036;SDS011;9651;49.138;8.900;2023-03-01T18:02:10;22.53;;;13.40;;
19036;SDS011;9651;49.138;8.900;2023-03-01T18:06:15;64.10;;;30.37;;
19036;SDS011;9651;49.138;8.900;2023-03-01T18:10:18;32.23;;;17.30;;
19036;SDS011;9651;49.138;8.900;2023-03-01T18:14:21;53.93;;;26.63;;
19036;SDS011;9651;49.138;8.900;2023-03-01T18:18:24;39.53;;;21.50;;
19036;SDS011;9651;49.138;8.900;2023-03-01T18:22:27;29.07;;;16.37;;
19036;SDS011;9651;49.138;8.900;2023-03-01T18:26:29;26.87;;;14.67;;
19036;SDS011;9651;49.138;8.900;2023-03-01T18:30:31;28.90;;;15.53;;
19036;SDS011;9651;49.138;8.900;2023-03-01T18:34:33;30.00;;;15.87;;
19036;SDS011;9651;49.138;8.900;2023-03-01T18:38:36;22.87;;;12.57;;
19036;SDS011;9651;49.138;8.900;2023-03-01T18:42:38;23.87;;;12.73;;
19036;SDS011;9651;49.138;8.900;2023-03-01T18:46:40;24.40;;;13.77;;
19036;SDS011;9651;49.138;8.900;2023-03-01T18:50:45;27.57;;;15.33;;
19036;SDS011;9651;49.138;8.900;2023-03-01T18:54:48;28.53;;;16.37;;
19036;SDS011;9651;49.138;8.900;2023-03-01T18:58:50;34.87;;;16.13;;
19036;SDS011;9651;49.138;8.900;2023-03-01T19:02:52;34.63;;;17.20;;
19036;SDS011;9651;49.138;8.900;2023-03-01T19:06:54;31.83;;;16.37;;
19036;SDS011;9651;49.138;8.900;2023-03-01T19:11:00;30.97;;;16.97;;
19036;SDS011;9651;49.138;8.900;2023-03-01T19:15:04;32.90;;;16.37;;
19036;SDS011;9651;49.138;8.900;2023-03-01T19:19:07;26.60;;;14.73;;
19036;SDS011;9651;49.138;8.900;2023-03-01T19:23:09;23.87;;;14.23;;
19036;SDS011;9651;49.138;8.900;2023-03-01T19:27:12;26.60;;;14.50;;
19036;SDS011;9651;49.138;8.900;2023-03-01T19:31:15;24.47;;;13.57;;
19036;SDS011;9651;49.138;8.900;2023-03-01T19:35:18;27.60;;;14.53;;
19036;SDS011;9651;49.138;8.900;2023-03-01T19:39:22;26.60;;;13.77;;
19036;SDS011;9651;49.138;8.900;2023-03-01T19:43:27;29.27;;;13.17;;
19036;SDS011;9651;49.138;8.900;2023-03-01T19:47:29;28.00;;;13.80;;
19036;SDS011;9651;49.138;8.900;2023-03-01T19:51:31;25.93;;;12.67;;
19036;SDS011;9651;49.138;8.900;2023-03-01T19:55:35;32.53;;;15.00;;
19036;SDS011;9651;49.138;8.900;2023-03-01T19:59:39;29.90;;;15.93;;
19036;SDS011;9651;49.138;8.900;2023-03-01T20:03:41;29.43;;;14.63;;
19036;SDS011;9651;49.138;8.900;2023-03-01T20:07:43;29.90;;;15.13;;
19036;SDS011;9651;49.138;8.900;2023-03-01T20:11:45;30.43;;;15.17;;
19036;SDS011;9651;49.138;8.900;2023-03-01T20:15:48;28.90;;;17.40;;
19036;SDS011;9651;49.138;8.900;2023-03-01T20:19:50;28.97;;;15.90;;
19036;SDS011;9651;49.138;8.900;2023-03-01T20:23:53;27.53;;;14.90;;
19036;SDS011;9651;49.138;8.900;2023-03-01T20:27:55;25.27;;;12.83;;
19036;SDS011;9651;49.138;8.900;2023-03-01T20:31:58;30.77;;;14.67;;
19036;SDS011;9651;49.138;8.900;2023-03-01T20:36:00;28.73;;;14.13;;
19036;SDS011;9651;49.138;8.900;2023-03-01T20:40:02;29.07;;;14.27;;
19036;SDS011;9651;49.138;8.900;2023-03-01T20:44:05;37.53;;;15.50;;
19036;SDS011;9651;49.138;8.900;2023-03-01T20:48:09;30.00;;;15.70;;
19036;SDS011;9651;49.138;8.900;2023-03-01T20:52:13;29.07;;;13.70;;
19036;SDS011;9651;49.138;8.900;2023-03-01T20:56:15;26.17;;;13.40;;
19036;SDS011;9651;49.138;8.900;2023-03-01T21:00:34;23.47;;;12.53;;
19036;SDS011;9651;49.138;8.900;2023-03-01T21:04:38;22.07;;;12.17;;
19036;SDS011;9651;49.138;8.900;2023-03-01T21:08:40;22.57;;;12.53;;
19036;SDS011;9651;49.138;8.900;2023-03-01T21:12:42;24.17;;;12.93;;
19036;SDS011;9651;49.138;8.900;2023-03-01T21:16:43;33.60;;;14.23;;
19036;SDS011;9651;49.138;8.900;2023-03-01T21:20:47;28.87;;;14.13;;
19036;SDS011;9651;49.138;8.900;2023-03-01T21:24:49;26.07;;;12.87;;
19036;SDS011;9651;49.138;8.900;2023-03-01T21:28:53;29.33;;;13.77;;
19036;SDS011;9651;49.138;8.900;2023-03-01T21:32:57;31.77;;;14.70;;
19036;SDS011;9651;49.138;8.900;2023-03-01T21:37:00;26.70;;;14.40;;
19036;SDS011;9651;49.138;8.900;2023-03-01T21:41:03;30.33;;;14.73;;
19036;SDS011;9651;49.138;8.900;2023-03-01T21:45:06;30.13;;;16.20;;
19036;SDS011;9651;49.138;8.900;2023-03-01T21:49:08;32.77;;;14.93;;
19036;SDS011;9651;49.138;8.900;2023-03-01T21:53:12;26.43;;;15.07;;
19036;SDS011;9651;49.138;8.900;2023-03-01T21:57:14;27.57;;;15.07;;
19036;SDS011;9651;49.138;8.900;2023-03-01T22:01:17;29.37;;;14.67;;
19036;SDS011;9651;49.138;8.900;2023-03-01T22:05:23;29.90;;;15.30;;
19036;SDS011;9651;49.138;8.900;2023-03-01T22:09:26;25.97;;;14.03;;
19036;SDS011;9651;49.138;8.900;2023-03-01T22:13:29;28.80;;;14.80;;
19036;SDS011;9651;49.138;8.900;2023-03-01T22:17:31;30.07;;;15.30;;
19036;SDS011;9651;49.138;8.900;2023-03-01T22:21:32;29.23;;;15.97;;
19036;SDS011;9651;49.138;8.900;2023-03-01T22:25:40;31.10;;;15.90;;
19036;SDS011;9651;49.138;8.900;2023-03-01T22:29:42;30.50;;;15.23;;
19036;SDS011;9651;49.138;8.900;2023-03-01T22:33:44;33.87;;;16.63;;
19036;SDS011;9651;49.138;8.900;2023-03-01T22:37:46;33.17;;;16.07;;
19036;SDS011;9651;49.138;8.900;2023-03-01T22:41:49;31.60;;;15.47;;
19036;SDS011;9651;49.138;8.900;2023-03-01T22:45:54;34.43;;;15.70;;
19036;SDS011;9651;49.138;8.900;2023-03-01T22:49:55;30.60;;;15.03;;
19036;SDS011;9651;49.138;8.900;2023-03-01T22:53:57;34.63;;;15.00;;
19036;SDS011;9651;49.138;8.900;2023-03-01T22:58:01;30.60;;;15.03;;
19036;SDS011;9651;49.138;8.900;2023-03-01T23:02:03;30.67;;;15.03;;
19036;SDS011;9651;49.138;8.900;2023-03-01T23:06:05;33.77;;;16.37;;
19036;SDS011;9651;49.138;8.900;2023-03-01T23:10:07;31.70;;;15.27;;
19036;SDS011;9651;49.138;8.900;2023-03-01T23:14:12;30.93;;;15.33;;
19036;SDS011;9651;49.138;8.900;2023-03-01T23:18:15;30.67;;;16.43;;
19036;SDS011;9651;49.138;8.900;2023-03-01T23:22:18;31.53;;;14.73;;
19036;SDS011;9651;49.138;8.900;2023-03-01T23:26:20;30.37;;;15.00;;
19036;SDS011;9651;49.138;8.900;2023-03-01T23:30:26;31.17;;;15.37;;
19036;SDS011;9651;49.138;8.900;2023-03-01T23:34:28;30.03;;;15.67;;
19036;SDS011;9651;49.138;8.900;2023-03-01T23:38:30;32.60;;;15.93;;
19036;SDS011;9651;49.138;8.900;2023-03-01T23:42:32;25.03;;;14.10;;
19036;SDS011;9651;49.138;8.900;2023-03-01T23:46:36;28.57;;;14.70;;
19036;SDS011;9651;49.138;8.900;2023-03-01T23:50:38;27.20;;;13.87;;
19036;SDS011;9651;49.138;8.900;2023-03-01T23:54:41;32.53;;;15.00;;
19036;SDS011;9651;49.138;8.900;2023-03-01T23:58:43;27.03;;;14.47;;
